sensor_id;sensor_type;location;lat;lon;timestamp;P1;durP1;ratioP1;P2;durP2;ratioP2
2934;SDS011;2462;51.456;7.248;2023-02-15T00:01:12;12.93;;;10.67;;
2934;SDS011;2462;51.456;7.248;2023-02-15T00:03:38;13.80;;;10.13;;
2934;SDS011;2462;51.456;7.248;2023-02-15T00:06:04;12.37;;;9.50;;
2934;SDS011;2462;51.456;7.248;2023-02-15T00:08:31;14.93;;;10.87;;
2934;SDS011;2462;51.456;7.248;2023-02-15T00:11:04;15.17;;;10.20;;
2934;SDS011;2462;51.456;7.248;2023-02-15T00:13:30;12.67;;;9.80;;
2934;SDS011;2462;51.456;7.248;2023-02-15T00:16:02;12.00;;;9.60;;
2934;SDS011;2462;51.456;7.248;2023-02-15T00:18:29;14.40;;;9.60;;
2934;SDS011;2462;51.456;7.248;2023-02-15T00:20:55;13.03;;;10.30;;
2934;SDS011;2462;51.456;7.248;2023-02-15T00:23:21;14.93;;;9.63;;
2934;SDS011;2462;51.456;7.248;2023-02-15T00:25:47;13.87;;;10.37;;
2934;SDS011;2462;51.456;7.248;2023-02-15T00:28:13;14.70;;;9.67;;
2934;SDS011;2462;51.456;7.248;2023-02-15T00:30:39;12.33;;;10.20;;
2934;SDS011;2462;51.456;7.248;2023-02-15T00:33:05;12.77;;;9.93;;
2934;SDS011;2462;51.456;7.248;2023-02-15T00:35:31;17.33;;;10.57;;
2934;SDS011;2462;51.456;7.248;2023-02-15T00:37:57;13.70;;;11.40;;
2934;SDS011;2462;51.456;7.248;2023-02-15T00:40:23;12.97;;;11.10;;
2934;SDS011;2462;51.456;7.248;2023-02-15T00:42:49;14.00;;;10.50;;
2934;SDS011;2462;51.456;7.248;2023-02-15T00:45:15;13.93;;;11.10;;
2934;SDS011;2462;51.456;7.248;2023-02-15T00:47:41;12.77;;;9.83;;
2934;SDS011;2462;51.456;7.248;2023-02-15T00:50:07;11.70;;;10.00;;
2934;SDS011;2462;51.456;7.248;2023-02-15T00:52:33;15.47;;;11.00;;
2934;SDS011;2462;51.456;7.248;2023-02-15T00:54:59;13.10;;;10.60;;
2934;SDS011;2462;51.456;7.248;2023-02-15T00:57:25;12.63;;;10.10;;
2934;SDS011;2462;51.456;7.248;2023-02-15T00:59:51;14.23;;;11.60;;
2934;SDS011;2462;51.456;7.248;2023-02-15T01:02:17;12.97;;;10.07;;
2934;SDS011;2462;51.456;7.248;2023-02-15T01:04:43;13.30;;;10.70;;
2934;SDS011;2462;51.456;7.248;2023-02-15T01:07:09;14.70;;;10.60;;
2934;SDS011;2462;51.456;7.248;2023-02-15T01:09:35;15.80;;;11.00;;
2934;SDS011;2462;51.456;7.248;2023-02-15T01:12:01;12.33;;;10.13;;
2934;SDS011;2462;51.456;7.248;2023-02-15T01:14:27;13.50;;;10.43;;
2934;SDS011;2462;51.456;7.248;2023-02-15T01:16:53;13.87;;;10.83;;
2934;SDS011;2462;51.456;7.248;2023-02-15T01:19:19;12.10;;;9.20;;
2934;SDS011;2462;51.456;7.248;2023-02-15T01:21:45;14.53;;;10.40;;
2934;SDS011;2462;51.456;7.248;2023-02-15T01:24:12;13.20;;;10.87;;
2934;SDS011;2462;51.456;7.248;2023-02-15T01:26:38;13.20;;;11.00;;
2934;SDS011;2462;51.456;7.248;2023-02-15T01:29:04;14.83;;;10.33;;
2934;SDS011;2462;51.456;7.248;2023-02-15T01:31:30;16.20;;;11.70;;
2934;SDS011;2462;51.456;7.248;2023-02-15T01:33:56;14.53;;;10.67;;
2934;SDS011;2462;51.456;7.248;2023-02-15T01:36:22;15.73;;;11.33;;
2934;SDS011;2462;51.456;7.248;2023-02-15T01:38:48;12.07;;;10.70;;
2934;SDS011;2462;51.456;7.248;2023-02-15T01:41:14;14.13;;;10.40;;
2934;SDS011;2462;51.456;7.248;2023-02-15T01:43:58;14.10;;;10.67;;
2934;SDS011;2462;51.456;7.248;2023-02-15T01:46:26;14.73;;;10.50;;
2934;SDS011;2462;51.456;7.248;2023-02-15T01:48:55;12.50;;;10.40;;
2934;SDS011;2462;51.456;7.248;2023-02-15T01:51:23;16.07;;;11.90;;
2934;SDS011;2462;51.456;7.248;2023-02-15T01:53:51;14.50;;;11.50;;
2934;SDS011;2462;51.456;7.248;2023-02-15T01:56:25;13.33;;;10.83;;
2934;SDS011;2462;51.456;7.248;2023-02-15T01:58:52;15.90;;;11.70;;
2934;SDS011;2462;51.456;7.248;2023-02-15T02:01:20;15.57;;;12.10;;
2934;SDS011;2462;51.456;7.248;2023-02-15T02:03:53;12.87;;;10.40;;
2934;SDS011;2462;51.456;7.248;2023-02-15T02:06:22;13.00;;;10.40;;
2934;SDS011;2462;51.456;7.248;2023-02-15T02:08:49;15.43;;;11.87;;
2934;SDS011;2462;51.456;7.248;2023-02-15T02:11:15;13.93;;;10.80;;
2934;SDS011;2462;51.456;7.248;2023-02-15T02:13:42;13.50;;;11.00;;
2934;SDS011;2462;51.456;7.248;2023-02-15T02:21:39;15.80;;;11.57;;
2934;SDS011;2462;51.456;7.248;2023-02-15T02:26:57;17.27;;;12.03;;
2934;SDS011;2462;51.456;7.248;2023-02-15T02:29:45;20.33;;;11.67;;
2934;SDS011;2462;51.456;7.248;2023-02-15T02:32:28;14.63;;;11.77;;
2934;SDS011;2462;51.456;7.248;2023-02-15T02:37:37;16.03;;;11.90;;
2934;SDS011;2462;51.456;7.248;2023-02-15T02:42:40;15.37;;;12.50;;
2934;SDS011;2462;51.456;7.248;2023-02-15T02:47:38;14.27;;;11.53;;
2934;SDS011;2462;51.456;7.248;2023-02-15T02:50:07;18.17;;;13.80;;
2934;SDS011;2462;51.456;7.248;2023-02-15T02:52:40;15.03;;;11.43;;
2934;SDS011;2462;51.456;7.248;2023-02-15T02:55:11;14.63;;;11.80;;
2934;SDS011;2462;51.456;7.248;2023-02-15T02:57:40;15.70;;;12.40;;
2934;SDS011;2462;51.456;7.248;2023-02-15T03:00:09;16.20;;;11.63;;
2934;SDS011;2462;51.456;7.248;2023-02-15T03:02:36;16.03;;;12.57;;
2934;SDS011;2462;51.456;7.248;2023-02-15T03:05:06;16.83;;;12.13;;
2934;SDS011;2462;51.456;7.248;2023-02-15T03:07:34;20.50;;;12.43;;
2934;SDS011;2462;51.456;7.248;2023-02-15T03:10:02;15.53;;;12.10;;
2934;SDS011;2462;51.456;7.248;2023-02-15T03:12:31;16.07;;;12.63;;
2934;SDS011;2462;51.456;7.248;2023-02-15T03:18:13;15.80;;;12.07;;
2934;SDS011;2462;51.456;7.248;2023-02-15T03:20:39;14.77;;;12.03;;
2934;SDS011;2462;51.456;7.248;2023-02-15T03:23:19;16.17;;;12.53;;
2934;SDS011;2462;51.456;7.248;2023-02-15T03:25:48;17.43;;;12.93;;
2934;SDS011;2462;51.456;7.248;2023-02-15T03:28:18;16.07;;;12.00;;
2934;SDS011;2462;51.456;7.248;2023-02-15T03:30:45;17.60;;;12.83;;
2934;SDS011;2462;51.456;7.248;2023-02-15T03:33:13;16.17;;;12.70;;
2934;SDS011;2462;51.456;7.248;2023-02-15T03:35:43;17.30;;;13.37;;
2934;SDS011;2462;51.456;7.248;2023-02-15T03:38:11;17.27;;;13.07;;
2934;SDS011;2462;51.456;7.248;2023-02-15T03:40:43;15.97;;;12.57;;
2934;SDS011;2462;51.456;7.248;2023-02-15T03:46:23;17.67;;;12.70;;
2934;SDS011;2462;51.456;7.248;2023-02-15T03:51:38;17.67;;;12.93;;
2934;SDS011;2462;51.456;7.248;2023-02-15T03:54:07;19.07;;;14.17;;
2934;SDS011;2462;51.456;7.248;2023-02-15T03:56:34;17.27;;;13.10;;
2934;SDS011;2462;51.456;7.248;2023-02-15T03:59:02;18.87;;;12.87;;
2934;SDS011;2462;51.456;7.248;2023-02-15T04:02:03;17.33;;;13.33;;
2934;SDS011;2462;51.456;7.248;2023-02-15T04:07:01;15.10;;;11.60;;
2934;SDS011;2462;51.456;7.248;2023-02-15T04:09:27;17.70;;;13.37;;
2934;SDS011;2462;51.456;7.248;2023-02-15T04:12:20;16.50;;;12.60;;
2934;SDS011;2462;51.456;7.248;2023-02-15T04:14:46;16.83;;;12.30;;
2934;SDS011;2462;51.456;7.248;2023-02-15T04:17:31;20.37;;;13.53;;
2934;SDS011;2462;51.456;7.248;2023-02-15T04:19:57;17.73;;;13.27;;
2934;SDS011;2462;51.456;7.248;2023-02-15T04:22:41;16.33;;;12.73;;
2934;SDS011;2462;51.456;7.248;2023-02-15T04:25:26;20.23;;;13.97;;
2934;SDS011;2462;51.456;7.248;2023-02-15T04:27:54;17.80;;;13.43;;
2934;SDS011;2462;51.456;7.248;2023-02-15T04:30:22;17.83;;;13.10;;
2934;SDS011;2462;51.456;7.248;2023-02-15T04:32:48;16.67;;;13.07;;
2934;SDS011;2462;51.456;7.248;2023-02-15T04:35:14;17.77;;;12.33;;
2934;SDS011;2462;51.456;7.248;2023-02-15T04:37:41;18.37;;;13.27;;
2934;SDS011;2462;51.456;7.248;2023-02-15T04:40:08;18.17;;;13.67;;
2934;SDS011;2462;51.456;7.248;2023-02-15T04:42:35;17.10;;;13.60;;
2934;SDS011;2462;51.456;7.248;2023-02-15T04:45:01;20.33;;;13.90;;
2934;SDS011;2462;51.456;7.248;2023-02-15T04:47:27;17.27;;;13.63;;
2934;SDS011;2462;51.456;7.248;2023-02-15T04:49:53;16.47;;;12.67;;
2934;SDS011;2462;51.456;7.248;2023-02-15T04:52:19;16.73;;;13.33;;
2934;SDS011;2462;51.456;7.248;2023-02-15T04:54:46;19.13;;;14.17;;
2934;SDS011;2462;51.456;7.248;2023-02-15T04:57:12;18.80;;;13.60;;
2934;SDS011;2462;51.456;7.248;2023-02-15T04:59:38;14.07;;;11.77;;
2934;SDS011;2462;51.456;7.248;2023-02-15T05:02:04;16.60;;;13.30;;
2934;SDS011;2462;51.456;7.248;2023-02-15T05:04:30;15.73;;;12.43;;
2934;SDS011;2462;51.456;7.248;2023-02-15T05:06:56;17.30;;;13.80;;
2934;SDS011;2462;51.456;7.248;2023-02-15T05:09:22;18.73;;;14.37;;
2934;SDS011;2462;51.456;7.248;2023-02-15T05:11:48;17.30;;;13.73;;
2934;SDS011;2462;51.456;7.248;2023-02-15T05:14:14;22.63;;;14.70;;
2934;SDS011;2462;51.456;7.248;2023-02-15T05:16:40;19.43;;;14.10;;
2934;SDS011;2462;51.456;7.248;2023-02-15T05:19:06;19.67;;;14.87;;
2934;SDS011;2462;51.456;7.248;2023-02-15T05:21:32;16.93;;;13.60;;
2934;SDS011;2462;51.456;7.248;2023-02-15T05:23:59;17.43;;;13.73;;
2934;SDS011;2462;51.456;7.248;2023-02-15T05:26:25;19.50;;;13.83;;
2934;SDS011;2462;51.456;7.248;2023-02-15T05:29:10;18.80;;;14.23;;
2934;SDS011;2462;51.456;7.248;2023-02-15T05:31:36;22.87;;;13.87;;
2934;SDS011;2462;51.456;7.248;2023-02-15T05:34:02;17.37;;;13.40;;
2934;SDS011;2462;51.456;7.248;2023-02-15T05:36:29;15.10;;;12.97;;
2934;SDS011;2462;51.456;7.248;2023-02-15T05:38:55;19.80;;;13.87;;
2934;SDS011;2462;51.456;7.248;2023-02-15T05:41:21;20.00;;;14.70;;
2934;SDS011;2462;51.456;7.248;2023-02-15T05:43:47;17.93;;;13.70;;
2934;SDS011;2462;51.456;7.248;2023-02-15T05:46:13;19.83;;;14.57;;
2934;SDS011;2462;51.456;7.248;2023-02-15T05:48:39;19.20;;;15.17;;
2934;SDS011;2462;51.456;7.248;2023-02-15T05:51:07;19.43;;;14.00;;
2934;SDS011;2462;51.456;7.248;2023-02-15T05:53:34;18.10;;;14.20;;
2934;SDS011;2462;51.456;7.248;2023-02-15T05:56:00;17.60;;;13.63;;
2934;SDS011;2462;51.456;7.248;2023-02-15T05:58:38;16.90;;;13.60;;
2934;SDS011;2462;51.456;7.248;2023-02-15T06:01:14;19.83;;;14.47;;
2934;SDS011;2462;51.456;7.248;2023-02-15T06:03:42;19.43;;;13.07;;
2934;SDS011;2462;51.456;7.248;2023-02-15T06:06:08;17.80;;;12.63;;
2934;SDS011;2462;51.456;7.248;2023-02-15T06:08:35;20.20;;;15.53;;
2934;SDS011;2462;51.456;7.248;2023-02-15T06:11:01;19.93;;;14.90;;
2934;SDS011;2462;51.456;7.248;2023-02-15T06:13:28;19.17;;;14.60;;
2934;SDS011;2462;51.456;7.248;2023-02-15T06:15:54;17.90;;;13.90;;
2934;SDS011;2462;51.456;7.248;2023-02-15T06:18:20;19.20;;;13.83;;
2934;SDS011;2462;51.456;7.248;2023-02-15T06:20:46;18.57;;;13.93;;
2934;SDS011;2462;51.456;7.248;2023-02-15T06:23:12;18.50;;;13.90;;
2934;SDS011;2462;51.456;7.248;2023-02-15T06:25:38;17.90;;;13.90;;
2934;SDS011;2462;51.456;7.248;2023-02-15T06:28:04;19.97;;;14.00;;
2934;SDS011;2462;51.456;7.248;2023-02-15T06:30:30;19.70;;;14.60;;
2934;SDS011;2462;51.456;7.248;2023-02-15T06:32:56;19.67;;;14.23;;
2934;SDS011;2462;51.456;7.248;2023-02-15T06:35:22;17.93;;;13.10;;
2934;SDS011;2462;51.456;7.248;2023-02-15T06:37:48;19.43;;;14.53;;
2934;SDS011;2462;51.456;7.248;2023-02-15T06:40:14;18.53;;;14.00;;
2934;SDS011;2462;51.456;7.248;2023-02-15T06:42:41;17.70;;;13.53;;
2934;SDS011;2462;51.456;7.248;2023-02-15T06:45:07;24.40;;;15.10;;
2934;SDS011;2462;51.456;7.248;2023-02-15T06:47:34;19.00;;;13.73;;
2934;SDS011;2462;51.456;7.248;2023-02-15T06:50:00;17.33;;;13.57;;
2934;SDS011;2462;51.456;7.248;2023-02-15T06:52:26;19.80;;;14.53;;
2934;SDS011;2462;51.456;7.248;2023-02-15T06:54:53;19.20;;;14.10;;
2934;SDS011;2462;51.456;7.248;2023-02-15T06:57:19;18.83;;;13.93;;
2934;SDS011;2462;51.456;7.248;2023-02-15T06:59:45;20.10;;;13.53;;
2934;SDS011;2462;51.456;7.248;2023-02-15T07:02:11;17.27;;;14.00;;
2934;SDS011;2462;51.456;7.248;2023-02-15T07:04:37;20.73;;;13.80;;
2934;SDS011;2462;51.456;7.248;2023-02-15T07:07:03;17.30;;;13.27;;
2934;SDS011;2462;51.456;7.248;2023-02-15T07:09:29;19.03;;;13.97;;
2934;SDS011;2462;51.456;7.248;2023-02-15T07:11:55;18.07;;;13.60;;
2934;SDS011;2462;51.456;7.248;2023-02-15T07:14:40;18.70;;;13.13;;
2934;SDS011;2462;51.456;7.248;2023-02-15T07:17:06;18.07;;;14.50;;
2934;SDS011;2462;51.456;7.248;2023-02-15T07:19:33;20.80;;;13.13;;
2934;SDS011;2462;51.456;7.248;2023-02-15T07:21:59;18.17;;;13.33;;
2934;SDS011;2462;51.456;7.248;2023-02-15T07:24:25;17.60;;;14.00;;
2934;SDS011;2462;51.456;7.248;2023-02-15T07:26:51;19.83;;;14.50;;
2934;SDS011;2462;51.456;7.248;2023-02-15T07:29:17;20.20;;;15.40;;
2934;SDS011;2462;51.456;7.248;2023-02-15T07:31:43;18.23;;;13.83;;
2934;SDS011;2462;51.456;7.248;2023-02-15T07:34:10;18.30;;;15.00;;
2934;SDS011;2462;51.456;7.248;2023-02-15T07:36:36;20.67;;;13.43;;
2934;SDS011;2462;51.456;7.248;2023-02-15T07:39:02;20.17;;;15.00;;
2934;SDS011;2462;51.456;7.248;2023-02-15T07:41:29;20.40;;;14.83;;
2934;SDS011;2462;51.456;7.248;2023-02-15T07:43:55;18.40;;;13.47;;
2934;SDS011;2462;51.456;7.248;2023-02-15T07:46:20;20.17;;;14.67;;
2934;SDS011;2462;51.456;7.248;2023-02-15T07:48:47;17.30;;;13.13;;
2934;SDS011;2462;51.456;7.248;2023-02-15T07:51:13;21.93;;;15.73;;
2934;SDS011;2462;51.456;7.248;2023-02-15T07:53:40;19.17;;;14.50;;
2934;SDS011;2462;51.456;7.248;2023-02-15T07:56:09;21.30;;;14.23;;
2934;SDS011;2462;51.456;7.248;2023-02-15T07:58:35;18.30;;;13.60;;
2934;SDS011;2462;51.456;7.248;2023-02-15T08:01:17;19.10;;;14.67;;
2934;SDS011;2462;51.456;7.248;2023-02-15T08:03:44;19.83;;;14.17;;
2934;SDS011;2462;51.456;7.248;2023-02-15T08:06:10;19.73;;;13.90;;
2934;SDS011;2462;51.456;7.248;2023-02-15T08:08:38;20.03;;;15.00;;
2934;SDS011;2462;51.456;7.248;2023-02-15T08:11:14;18.07;;;13.87;;
2934;SDS011;2462;51.456;7.248;2023-02-15T08:14:02;18.97;;;12.97;;
2934;SDS011;2462;51.456;7.248;2023-02-15T08:16:42;17.87;;;13.60;;
2934;SDS011;2462;51.456;7.248;2023-02-15T08:19:09;17.40;;;13.43;;
2934;SDS011;2462;51.456;7.248;2023-02-15T08:21:36;18.20;;;13.80;;
2934;SDS011;2462;51.456;7.248;2023-02-15T08:24:04;16.47;;;13.17;;
2934;SDS011;2462;51.456;7.248;2023-02-15T08:26:30;17.27;;;14.20;;
2934;SDS011;2462;51.456;7.248;2023-02-15T08:28:57;19.73;;;14.17;;
2934;SDS011;2462;51.456;7.248;2023-02-15T08:31:23;18.27;;;13.43;;
2934;SDS011;2462;51.456;7.248;2023-02-15T08:33:50;17.50;;;13.90;;
2934;SDS011;2462;51.456;7.248;2023-02-15T08:36:17;19.87;;;14.43;;
2934;SDS011;2462;51.456;7.248;2023-02-15T08:38:44;17.10;;;13.00;;
2934;SDS011;2462;51.456;7.248;2023-02-15T08:41:11;18.20;;;13.57;;
2934;SDS011;2462;51.456;7.248;2023-02-15T08:43:37;17.53;;;13.50;;
2934;SDS011;2462;51.456;7.248;2023-02-15T08:46:04;18.87;;;13.63;;
2934;SDS011;2462;51.456;7.248;2023-02-15T08:48:30;15.57;;;12.37;;
2934;SDS011;2462;51.456;7.248;2023-02-15T08:50:56;19.33;;;14.13;;
2934;SDS011;2462;51.456;7.248;2023-02-15T08:53:22;17.70;;;12.37;;
2934;SDS011;2462;51.456;7.248;2023-02-15T08:55:55;18.77;;;13.50;;
2934;SDS011;2462;51.456;7.248;2023-02-15T08:58:22;16.33;;;12.50;;
2934;SDS011;2462;51.456;7.248;2023-02-15T09:00:48;16.87;;;12.43;;
2934;SDS011;2462;51.456;7.248;2023-02-15T09:03:14;19.43;;;13.50;;
2934;SDS011;2462;51.456;7.248;2023-02-15T09:05:40;21.10;;;14.80;;
2934;SDS011;2462;51.456;7.248;2023-02-15T09:08:06;16.10;;;13.13;;
2934;SDS011;2462;51.456;7.248;2023-02-15T09:10:32;17.97;;;12.60;;
2934;SDS011;2462;51.456;7.248;2023-02-15T09:12:58;16.03;;;13.53;;
2934;SDS011;2462;51.456;7.248;2023-02-15T09:15:24;17.53;;;13.73;;
2934;SDS011;2462;51.456;7.248;2023-02-15T09:17:50;18.77;;;13.30;;
2934;SDS011;2462;51.456;7.248;2023-02-15T09:20:16;15.90;;;12.70;;
2934;SDS011;2462;51.456;7.248;2023-02-15T09:22:42;17.80;;;13.33;;
2934;SDS011;2462;51.456;7.248;2023-02-15T09:25:08;17.57;;;14.07;;
2934;SDS011;2462;51.456;7.248;2023-02-15T09:27:34;15.80;;;13.47;;
2934;SDS011;2462;51.456;7.248;2023-02-15T09:30:01;18.43;;;14.00;;
2934;SDS011;2462;51.456;7.248;2023-02-15T09:32:27;17.70;;;13.40;;
2934;SDS011;2462;51.456;7.248;2023-02-15T09:34:53;18.53;;;13.33;;
2934;SDS011;2462;51.456;7.248;2023-02-15T09:37:19;17.57;;;13.10;;
2934;SDS011;2462;51.456;7.248;2023-02-15T09:39:45;18.27;;;13.33;;
2934;SDS011;2462;51.456;7.248;2023-02-15T09:50:03;17.97;;;13.50;;
2934;SDS011;2462;51.456;7.248;2023-02-15T10:03:05;15.97;;;12.37;;
2934;SDS011;2462;51.456;7.248;2023-02-15T10:05:37;21.67;;;13.97;;
2934;SDS011;2462;51.456;7.248;2023-02-15T10:15:42;16.83;;;12.33;;
2934;SDS011;2462;51.456;7.248;2023-02-15T10:39:31;15.50;;;12.20;;
2934;SDS011;2462;51.456;7.248;2023-02-15T10:52:16;16.80;;;12.80;;
2934;SDS011;2462;51.456;7.248;2023-02-15T10:54:49;17.47;;;12.33;;
2934;SDS011;2462;51.456;7.248;2023-02-15T11:02:18;15.53;;;11.40;;
2934;SDS011;2462;51.456;7.248;2023-02-15T11:07:19;16.83;;;12.23;;
2934;SDS011;2462;51.456;7.248;2023-02-15T11:09:47;15.83;;;10.83;;
2934;SDS011;2462;51.456;7.248;2023-02-15T11:12:16;16.43;;;11.77;;
2934;SDS011;2462;51.456;7.248;2023-02-15T11:14:54;13.20;;;10.50;;
2934;SDS011;2462;51.456;7.248;2023-02-15T11:17:23;14.07;;;11.13;;
2934;SDS011;2462;51.456;7.248;2023-02-15T11:19:58;14.20;;;11.00;;
2934;SDS011;2462;51.456;7.248;2023-02-15T11:22:27;13.90;;;10.10;;
2934;SDS011;2462;51.456;7.248;2023-02-15T11:24:53;11.97;;;10.13;;
2934;SDS011;2462;51.456;7.248;2023-02-15T11:27:23;14.37;;;11.67;;
2934;SDS011;2462;51.456;7.248;2023-02-15T11:29:58;14.27;;;10.90;;
2934;SDS011;2462;51.456;7.248;2023-02-15T11:32:35;14.90;;;11.30;;
2934;SDS011;2462;51.456;7.248;2023-02-15T11:37:37;14.60;;;10.47;;
2934;SDS011;2462;51.456;7.248;2023-02-15T11:40:24;13.67;;;11.30;;
2934;SDS011;2462;51.456;7.248;2023-02-15T11:42:51;14.05;;;11.43;;
2934;SDS011;2462;51.456;7.248;2023-02-15T11:45:29;12.57;;;10.57;;
2934;SDS011;2462;51.456;7.248;2023-02-15T11:47:58;14.30;;;11.70;;
2934;SDS011;2462;51.456;7.248;2023-02-15T11:50:29;13.13;;;11.43;;
2934;SDS011;2462;51.456;7.248;2023-02-15T11:52:56;17.33;;;10.73;;
2934;SDS011;2462;51.456;7.248;2023-02-15T11:55:23;14.57;;;11.07;;
2934;SDS011;2462;51.456;7.248;2023-02-15T11:57:52;14.13;;;10.23;;
2934;SDS011;2462;51.456;7.248;2023-02-15T12:03:00;12.07;;;9.40;;
2934;SDS011;2462;51.456;7.248;2023-02-15T12:05:27;13.57;;;9.07;;
2934;SDS011;2462;51.456;7.248;2023-02-15T12:08:00;13.10;;;9.70;;
2934;SDS011;2462;51.456;7.248;2023-02-15T12:10:29;24.17;;;10.73;;
2934;SDS011;2462;51.456;7.248;2023-02-15T12:13:13;16.53;;;9.40;;
2934;SDS011;2462;51.456;7.248;2023-02-15T12:15:40;27.73;;;10.53;;
2934;SDS011;2462;51.456;7.248;2023-02-15T12:18:16;14.57;;;9.80;;
2934;SDS011;2462;51.456;7.248;2023-02-15T12:20:43;16.00;;;10.20;;
2934;SDS011;2462;51.456;7.248;2023-02-15T12:23:12;16.23;;;9.70;;
2934;SDS011;2462;51.456;7.248;2023-02-15T12:25:41;23.80;;;9.90;;
2934;SDS011;2462;51.456;7.248;2023-02-15T12:30:53;10.23;;;8.27;;
2934;SDS011;2462;51.456;7.248;2023-02-15T12:36:12;17.37;;;11.20;;
2934;SDS011;2462;51.456;7.248;2023-02-15T12:38:41;13.50;;;9.17;;
2934;SDS011;2462;51.456;7.248;2023-02-15T12:41:23;18.30;;;9.40;;
2934;SDS011;2462;51.456;7.248;2023-02-15T12:44:03;15.20;;;9.33;;
2934;SDS011;2462;51.456;7.248;2023-02-15T12:46:29;10.83;;;9.10;;
2934;SDS011;2462;51.456;7.248;2023-02-15T12:51:42;11.43;;;9.33;;
2934;SDS011;2462;51.456;7.248;2023-02-15T12:54:17;12.87;;;8.63;;
2934;SDS011;2462;51.456;7.248;2023-02-15T12:56:45;11.77;;;9.00;;
2934;SDS011;2462;51.456;7.248;2023-02-15T12:59:12;15.43;;;8.80;;
2934;SDS011;2462;51.456;7.248;2023-02-15T13:01:40;10.60;;;9.17;;
2934;SDS011;2462;51.456;7.248;2023-02-15T13:04:28;11.10;;;8.33;;
2934;SDS011;2462;51.456;7.248;2023-02-15T13:06:54;15.30;;;8.53;;
2934;SDS011;2462;51.456;7.248;2023-02-15T13:12:10;13.77;;;8.90;;
2934;SDS011;2462;51.456;7.248;2023-02-15T13:14:37;15.43;;;9.30;;
2934;SDS011;2462;51.456;7.248;2023-02-15T13:17:08;12.70;;;8.67;;
2934;SDS011;2462;51.456;7.248;2023-02-15T13:19:42;13.40;;;9.63;;
2934;SDS011;2462;51.456;7.248;2023-02-15T13:22:17;10.03;;;9.03;;
2934;SDS011;2462;51.456;7.248;2023-02-15T13:24:50;11.57;;;8.57;;
2934;SDS011;2462;51.456;7.248;2023-02-15T13:27:20;13.77;;;9.33;;
2934;SDS011;2462;51.456;7.248;2023-02-15T13:29:49;14.63;;;9.27;;
2934;SDS011;2462;51.456;7.248;2023-02-15T13:34:50;9.67;;;8.23;;
2934;SDS011;2462;51.456;7.248;2023-02-15T13:37:20;13.53;;;8.07;;
2934;SDS011;2462;51.456;7.248;2023-02-15T13:39:51;13.70;;;9.33;;
2934;SDS011;2462;51.456;7.248;2023-02-15T13:45:00;14.03;;;9.27;;
2934;SDS011;2462;51.456;7.248;2023-02-15T13:50:17;11.00;;;8.70;;
2934;SDS011;2462;51.456;7.248;2023-02-15T13:55:46;10.97;;;8.57;;
2934;SDS011;2462;51.456;7.248;2023-02-15T14:00:58;11.23;;;8.40;;
2934;SDS011;2462;51.456;7.248;2023-02-15T14:13:50;12.67;;;8.07;;
2934;SDS011;2462;51.456;7.248;2023-02-15T14:18:47;9.43;;;7.57;;
2934;SDS011;2462;51.456;7.248;2023-02-15T14:21:19;10.97;;;8.30;;
2934;SDS011;2462;51.456;7.248;2023-02-15T14:31:43;10.30;;;7.53;;
2934;SDS011;2462;51.456;7.248;2023-02-15T14:34:23;10.90;;;8.57;;
2934;SDS011;2462;51.456;7.248;2023-02-15T14:36:50;11.90;;;8.50;;
2934;SDS011;2462;51.456;7.248;2023-02-15T14:39:22;9.03;;;8.13;;
2934;SDS011;2462;51.456;7.248;2023-02-15T14:42:13;10.40;;;7.90;;
2934;SDS011;2462;51.456;7.248;2023-02-15T14:44:45;11.67;;;7.90;;
2934;SDS011;2462;51.456;7.248;2023-02-15T14:49:39;10.37;;;8.10;;
2934;SDS011;2462;51.456;7.248;2023-02-15T14:52:06;13.80;;;8.50;;
2934;SDS011;2462;51.456;7.248;2023-02-15T14:59:46;11.63;;;8.03;;
2934;SDS011;2462;51.456;7.248;2023-02-15T15:02:21;11.67;;;7.43;;
2934;SDS011;2462;51.456;7.248;2023-02-15T15:07:21;10.00;;;7.43;;
2934;SDS011;2462;51.456;7.248;2023-02-15T15:09:59;8.57;;;7.20;;
2934;SDS011;2462;51.456;7.248;2023-02-15T15:14:52;11.77;;;8.17;;
2934;SDS011;2462;51.456;7.248;2023-02-15T15:17:51;9.60;;;8.30;;
2934;SDS011;2462;51.456;7.248;2023-02-15T15:20:19;9.00;;;7.23;;
2934;SDS011;2462;51.456;7.248;2023-02-15T15:25:47;12.10;;;8.00;;
2934;SDS011;2462;51.456;7.248;2023-02-15T15:33:32;7.97;;;6.47;;
2934;SDS011;2462;51.456;7.248;2023-02-15T15:41:53;9.87;;;7.77;;
2934;SDS011;2462;51.456;7.248;2023-02-15T15:44:31;9.93;;;7.30;;
2934;SDS011;2462;51.456;7.248;2023-02-15T15:47:08;10.93;;;7.80;;
2934;SDS011;2462;51.456;7.248;2023-02-15T15:49:40;11.80;;;7.70;;
2934;SDS011;2462;51.456;7.248;2023-02-15T15:52:16;11.67;;;7.80;;
2934;SDS011;2462;51.456;7.248;2023-02-15T15:54:43;9.20;;;7.60;;
2934;SDS011;2462;51.456;7.248;2023-02-15T15:57:21;10.27;;;7.17;;
2934;SDS011;2462;51.456;7.248;2023-02-15T15:59:50;9.87;;;7.27;;
2934;SDS011;2462;51.456;7.248;2023-02-15T16:02:18;9.93;;;7.30;;
2934;SDS011;2462;51.456;7.248;2023-02-15T16:04:44;10.37;;;7.67;;
2934;SDS011;2462;51.456;7.248;2023-02-15T16:09:39;8.60;;;7.17;;
2934;SDS011;2462;51.456;7.248;2023-02-15T16:12:11;8.03;;;6.73;;
2934;SDS011;2462;51.456;7.248;2023-02-15T16:14:40;8.93;;;7.10;;
2934;SDS011;2462;51.456;7.248;2023-02-15T16:17:12;10.20;;;7.50;;
2934;SDS011;2462;51.456;7.248;2023-02-15T16:19:40;8.70;;;7.80;;
2934;SDS011;2462;51.456;7.248;2023-02-15T16:22:10;9.43;;;7.67;;
2934;SDS011;2462;51.456;7.248;2023-02-15T16:24:38;8.70;;;6.63;;
2934;SDS011;2462;51.456;7.248;2023-02-15T16:29:53;10.50;;;7.83;;
2934;SDS011;2462;51.456;7.248;2023-02-15T16:34:52;9.03;;;8.10;;
2934;SDS011;2462;51.456;7.248;2023-02-15T16:37:19;12.67;;;8.03;;
2934;SDS011;2462;51.456;7.248;2023-02-15T16:39:48;12.17;;;7.90;;
2934;SDS011;2462;51.456;7.248;2023-02-15T16:42:14;9.03;;;7.53;;
2934;SDS011;2462;51.456;7.248;2023-02-15T16:44:41;11.17;;;8.03;;
2934;SDS011;2462;51.456;7.248;2023-02-15T16:47:12;9.63;;;7.43;;
2934;SDS011;2462;51.456;7.248;2023-02-15T16:49:42;10.77;;;8.03;;
2934;SDS011;2462;51.456;7.248;2023-02-15T16:52:10;10.80;;;7.70;;
2934;SDS011;2462;51.456;7.248;2023-02-15T16:54:37;10.67;;;7.93;;
2934;SDS011;2462;51.456;7.248;2023-02-15T16:57:14;11.00;;;7.10;;
2934;SDS011;2462;51.456;7.248;2023-02-15T16:59:47;10.40;;;7.70;;
2934;SDS011;2462;51.456;7.248;2023-02-15T17:02:16;9.97;;;7.77;;
2934;SDS011;2462;51.456;7.248;2023-02-15T17:04:43;12.43;;;8.47;;
2934;SDS011;2462;51.456;7.248;2023-02-15T17:07:16;9.80;;;7.83;;
2934;SDS011;2462;51.456;7.248;2023-02-15T17:09:49;11.70;;;8.33;;
2934;SDS011;2462;51.456;7.248;2023-02-15T17:15:00;9.13;;;7.37;;
2934;SDS011;2462;51.456;7.248;2023-02-15T17:17:27;10.57;;;8.30;;
2934;SDS011;2462;51.456;7.248;2023-02-15T17:19:53;8.63;;;6.60;;
2934;SDS011;2462;51.456;7.248;2023-02-15T17:22:21;9.47;;;8.03;;
2934;SDS011;2462;51.456;7.248;2023-02-15T17:24:48;11.53;;;7.63;;
2934;SDS011;2462;51.456;7.248;2023-02-15T17:27:20;11.30;;;7.83;;
2934;SDS011;2462;51.456;7.248;2023-02-15T17:29:51;10.53;;;7.80;;
2934;SDS011;2462;51.456;7.248;2023-02-15T17:32:22;9.53;;;7.20;;
2934;SDS011;2462;51.456;7.248;2023-02-15T17:37:29;9.17;;;7.13;;
2934;SDS011;2462;51.456;7.248;2023-02-15T17:39:56;12.33;;;7.83;;
2934;SDS011;2462;51.456;7.248;2023-02-15T17:42:22;9.77;;;7.60;;
2934;SDS011;2462;51.456;7.248;2023-02-15T17:44:49;10.27;;;8.37;;
2934;SDS011;2462;51.456;7.248;2023-02-15T17:47:19;9.70;;;7.00;;
2934;SDS011;2462;51.456;7.248;2023-02-15T17:49:46;10.37;;;7.80;;
2934;SDS011;2462;51.456;7.248;2023-02-15T17:52:14;10.77;;;8.10;;
2934;SDS011;2462;51.456;7.248;2023-02-15T17:54:40;9.83;;;8.37;;
2934;SDS011;2462;51.456;7.248;2023-02-15T17:57:26;11.77;;;7.83;;
2934;SDS011;2462;51.456;7.248;2023-02-15T17:59:52;10.87;;;8.30;;
2934;SDS011;2462;51.456;7.248;2023-02-15T18:02:37;10.67;;;7.67;;
2934;SDS011;2462;51.456;7.248;2023-02-15T18:05:22;12.17;;;8.60;;
2934;SDS011;2462;51.456;7.248;2023-02-15T18:08:17;12.30;;;7.67;;